Les Masies de Roda





Hora UTC 21:05
Temperatura 5.3 ºC
Sòl 15 cm 4.1 ºC
Subsòl 10 cm 6.7 ºC
Humitat 86.6 %
Pressió 1002.6 hPa
Pluja 0.0 mm
Velocitat vent 0.0 km/h
Direcció vent NNE
Radiació solar 0.1 W/m²

Dades diàries 2019-11-15



Hora UTC (hivern +1h; estiu +2h)
Temperatura (ºC) Humitat (%) Pressió (hPa) Velocitat vent (km/h) Precipitació (mm) Radiació solar (W/m²)
Hora UTC Aire Sòl 15 cm Subsòl 10 cm Humitat Pressió Vel. Dir. Vel. Max Dir. Intent. màx 5 min. Rad. Sol.
00:05 2.8 2.0 5.4 93.3 998.3 4.8 SW 4.8 SW 0.0 0.1
00:10 2.9 2.1 5.4 93.0 998.2 3.4 SW 6.1 WSW 0.0 0.1
00:15 2.8 1.9 5.4 92.6 998.2 0.5 SW 3.4 SW 0.0 0.1
00:20 2.8 1.8 5.3 92.1 998.3 3.2 SSW 6.1 SSW 0.0 0.1
00:25 2.9 2.0 5.3 91.8 998.4 3.8 SW 6.1 SSW 0.0 0.1
00:30 2.9 2.0 5.4 91.5 998.5 1.4 SW 6.1 SW 0.0 0.1
00:35 2.9 2.0 5.4 92.0 998.5 1.0 N 6.1 N 0.0 0.1
00:40 2.8 1.8 5.3 92.8 998.4 2.4 N 6.1 NNE 0.0 0.1
00:45 2.7 1.5 5.3 93.0 998.4 3.1 N 6.1 N 0.0 0.1
00:50 2.6 1.2 5.2 92.9 998.4 0.1 NNW 3.4 N 0.0 0.1
00:55 2.3 0.8 5.1 93.4 998.5 0.3 WNW 3.4 WNW 0.0 0.1
01:00 2.3 0.6 5.1 94.2 998.5 0.6 W 3.4 W 0.0 0.1
01:05 2.1 0.4 5.0 94.4 998.4 1.3 W 3.4 W 0.0 0.1
01:10 2.0 0.2 4.9 94.6 998.5 0.3 W 3.4 W 0.0 0.1
01:15 1.9 -0.1 4.9 94.9 998.5 0.2 W 3.4 W 0.0 0.1
01:20 1.8 -0.1 4.8 95.1 998.5 0.1 W 3.4 W 0.0 0.1
01:25 1.6 -0.3 4.7 95.4 998.6 0.9 SSW 3.4 SW 0.0 0.1
01:30 1.7 -0.4 4.7 96.0 998.6 0.7 SSW 6.1 SSW 0.0 0.1
01:35 1.6 -0.5 4.6 95.9 998.7 0.0 NNE 0.0 SSW 0.0 0.1
01:40 1.5 -0.5 4.6 95.7 998.7 0.1 SSW 3.4 SSW 0.0 0.1
01:45 1.2 -0.5 4.5 95.7 998.8 3.0 WSW 6.1 WSW 0.0 0.1
01:50 1.1 -0.8 4.5 96.2 998.8 1.0 SW 6.1 WSW 0.0 0.1
01:55 1.4 -0.8 4.4 97.0 998.9 0.0 NNE 0.0 SSE 0.0 0.1
02:00 1.3 -0.6 4.4 97.0 998.9 0.0 NNE 0.0 SSE 0.0 0.1
02:05 1.2 -0.6 4.3 97.0 998.9 0.0 NNE 0.0 SSE 0.0 0.1
02:10 1.1 -0.7 4.3 97.1 998.9 0.0 NNE 0.0 SSE 0.0 0.1
02:15 1.1 -0.8 4.2 97.3 998.9 0.0 NNE 0.0 SSE 0.0 0.1
02:20 1.1 -0.8 4.2 97.3 998.8 0.0 NNE 0.0 SE 0.0 0.1
02:25 0.8 -0.8 4.1 97.0 998.8 0.6 SE 3.4 SE 0.0 0.1
02:30 0.6 -1.1 4.1 97.0 998.8 0.1 SE 3.4 SE 0.0 0.1
02:35 0.9 -1.1 4.0 97.7 998.9 0.7 SE 3.4 SE 0.0 0.1
02:40 0.9 -0.9 4.0 97.5 998.9 0.0 NNE 0.0 SE 0.0 0.1
02:45 0.8 -0.9 3.9 97.5 998.8 0.0 NNE 0.0 SE 0.0 0.1
02:50 0.6 -0.9 3.9 97.3 998.8 0.0 NNE 0.0 ESE 0.0 0.1
02:55 0.4 -1.2 3.9 97.3 998.8 0.0 NNE 0.0 ESE 0.0 0.1
03:00 0.5 -1.3 3.8 97.5 998.9 0.0 NNE 0.0 ESE 0.0 0.1
03:05 0.4 -1.4 3.8 97.5 998.9 0.0 NNE 0.0 ESE 0.0 0.1
03:10 0.4 -1.4 3.7 97.6 998.8 0.0 NNE 0.0 ESE 0.0 0.1
03:15 0.4 -1.5 3.7 97.8 998.8 0.0 NNE 0.0 ESE 0.0 0.1
03:20 0.5 -1.4 3.7 98.1 998.8 0.3 SE 3.4 SE 0.0 0.1
03:25 0.7 -1.3 3.6 98.3 998.8 0.0 SE 3.4 SE 0.0 0.1
03:30 0.8 -1.0 3.6 98.4 998.8 1.2 ESE 6.1 ESE 0.0 0.1
03:35 1.0 -0.6 3.6 98.7 998.7 2.2 SE 6.1 E 0.0 0.1
03:40 1.1 -0.4 3.6 98.6 998.8 1.3 SSE 6.1 SE 0.0 0.1
03:45 0.9 -0.4 3.6 98.2 998.9 0.1 SSE 3.4 SSE 0.0 0.1
03:50 0.7 -0.4 3.6 98.4 998.9 0.3 SSE 3.4 SSE 0.0 0.1
03:55 0.7 -0.4 3.6 98.6 998.9 0.1 SSE 3.4 SSE 0.0 0.1
04:00 0.8 -0.4 3.6 98.7 998.9 0.3 N 3.4 N 0.0 0.1
04:05 0.8 -0.3 3.6 98.7 998.9 0.5 N 3.4 N 0.0 0.1
04:10 0.7 -0.3 3.6 98.5 999.0 0.0 NNE 0.0 NNW 0.0 0.1
04:15 0.6 -0.5 3.6 98.7 999.0 0.0 NNE 0.0 NNW 0.0 0.1
04:20 0.6 -0.6 3.5 98.8 999.0 0.0 NNE 0.0 NNW 0.0 0.1
04:25 0.6 -0.7 3.5 98.8 999.0 0.0 NNE 0.0 NNW 0.0 0.1
04:30 0.6 -0.7 3.5 98.7 999.1 0.0 NNE 0.0 NNW 0.0 0.1
04:35 0.5 -0.5 3.5 98.8 999.0 0.0 NNE 0.0 NNW 0.0 0.1
04:40 0.6 -0.4 3.5 98.9 999.0 0.0 NNE 0.0 NNW 0.0 0.1
04:45 0.6 -0.2 3.6 98.9 998.9 0.0 NNE 0.0 NNW 0.0 0.1
04:50 0.7 0.0 3.6 98.9 998.9 0.1 NNW 3.4 NNW 0.0 0.1
04:55 0.7 0.0 3.6 98.9 999.0 0.0 NNE 0.0 NNW 0.0 0.1
05:00 0.8 0.2 3.6 99.1 999.0 0.0 NNE 0.0 NNW 0.0 0.1
05:05 0.9 0.3 3.7 99.0 999.0 0.0 NNE 0.0 NNW 0.0 0.1
05:10 0.9 0.4 3.7 99.0 998.9 0.0 NNE 0.0 NNW 0.0 0.1
05:15 1.0 0.5 3.7 99.0 998.9 0.0 NNE 0.0 NNW 0.0 0.1
05:20 1.0 0.6 3.8 98.9 999.0 0.0 NNE 0.0 NNW 0.0 0.1
05:25 1.0 0.6 3.8 98.9 999.1 0.0 NNE 0.0 NNW 0.0 0.1
05:30 1.1 0.7 3.8 99.0 999.1 0.0 NNE 0.0 NNW 0.0 0.1
05:35 1.1 0.8 3.9 99.0 999.1 0.0 NNE 0.0 NNW 0.0 0.1
05:40 1.1 0.8 3.9 98.9 999.1 0.0 NNE 0.0 NNW 0.0 0.1
05:45 1.1 0.8 3.9 98.9 999.1 2.0 W 6.1 W 0.0 0.1
05:50 1.1 0.8 3.9 99.0 999.1 0.0 NNE 0.0 WSW 0.0 0.1
05:55 1.1 0.9 3.9 98.9 999.1 1.9 WSW 6.1 WSW 0.0 0.1
06:00 1.1 1.0 3.9 99.1 999.2 2.1 WSW 6.1 SW 0.0 0.1
06:05 1.2 1.1 3.9 99.1 999.2 3.3 W 6.1 WSW 0.0 0.1
06:10 1.2 1.1 3.9 99.0 999.2 3.8 W 6.1 W 0.0 0.1
06:15 1.1 1.1 4.0 99.0 999.2 3.2 W 6.1 W 0.0 0.1
06:20 1.2 1.1 4.0 99.1 999.2 1.7 WSW 6.1 WSW 0.0 0.1
06:25 1.2 1.1 4.0 99.1 999.3 0.0 NNE 0.0 WSW 0.0 0.1
06:30 1.3 1.2 4.0 99.2 999.4 0.0 NNE 0.0 WSW 0.0 0.2
06:35 1.3 1.3 4.0 99.2 999.4 0.0 NNE 0.0 SW 0.0 0.5
06:40 1.4 1.3 4.1 99.2 999.4 0.0 NNE 0.0 SW 0.0 1.0
06:45 1.4 1.4 4.1 99.2 999.5 0.0 NNE 0.0 SW 0.0 1.6
06:50 1.4 1.4 4.1 99.2 999.5 0.0 NNE 0.0 WSW 0.0 2.5
06:55 1.5 1.4 4.1 99.2 999.5 0.0 NNE 0.0 WSW 0.0 3.6
07:00 1.5 1.5 4.1 99.3 999.6 0.0 NNE 0.0 WSW 0.0 5.2
07:05 1.5 1.5 4.2 99.2 999.6 0.0 NNE 0.0 WNW 0.0 7.1
07:10 1.4 1.5 4.2 99.2 999.7 0.0 NNE 0.0 WSW 0.0 10.8
07:15 1.4 1.5 4.2 99.2 999.7 0.2 WSW 3.4 SW 0.0 13.5
07:20 1.4 1.5 4.2 99.2 999.9 1.5 SW 6.1 WSW 0.0 14.0
07:25 1.4 1.5 4.2 99.3 1000.1 1.4 SW 6.1 SW 0.0 14.8
07:30 1.5 1.6 4.2 99.3 1000.2 2.4 WNW 6.1 W 0.0 16.9
07:35 1.5 1.6 4.2 99.2 1000.3 1.7 WNW 6.1 NW 0.0 21.1
07:40 1.4 1.6 4.3 99.2 1000.3 2.9 WNW 6.1 WNW 0.0 24.9
07:45 1.3 1.6 4.3 99.1 1000.3 4.4 W 6.1 W 0.0 30.5
07:50 1.3 1.6 4.3 99.1 1000.4 4.8 W 6.1 WNW 0.0 32.4
07:55 1.4 1.6 4.3 99.1 1000.4 3.3 WSW 6.1 W 0.0 39.2
08:00 1.2 1.5 4.3 98.9 1000.4 0.6 WSW 3.4 WSW 0.0 47.4
08:05 1.3 1.6 4.4 99.0 1000.3 0.0 NNE 0.0 NW 0.0 57.2
08:10 1.4 1.7 4.4 99.0 1000.3 0.3 W 6.1 WSW 0.0 67.4
08:15 1.4 1.7 4.5 98.8 1000.3 2.3 W 6.1 WSW 0.0 69.7
08:20 1.5 1.7 4.5 98.8 1000.3 4.4 WNW 6.1 W 0.0 59.9
08:25 1.5 1.6 4.5 98.7 1000.3 4.0 WNW 6.1 W 0.0 51.5
08:30 1.5 1.6 4.5 98.5 1000.3 4.8 WNW 6.1 WNW 0.0 64.6
08:35 1.4 1.6 4.5 98.4 1000.4 6.7 NW 11.5 WNW 0.0 71.0
08:40 1.4 1.7 4.6 98.3 1000.4 4.3 WNW 8.8 WNW 0.0 61.5
08:45 1.5 1.9 4.6 98.1 1000.5 4.1 WNW 8.8 W 0.0 65.1
08:50 1.4 1.9 4.6 97.7 1000.5 5.6 W 8.8 W 0.0 64.9
08:55 1.3 1.9 4.7 97.5 1000.6 2.9 WNW 8.8 WNW 0.0 62.4
09:00 1.3 1.9 4.7 97.3 1000.6 1.3 W 6.1 W 0.0 52.5
09:05 1.3 2.0 4.7 97.1 1000.5 0.0 NNE 0.0 NW 0.0 63.9
09:10 1.5 2.1 4.8 97.1 1000.6 0.0 NNE 0.0 NE 0.0 68.8
09:15 1.6 2.2 4.8 97.1 1000.5 0.2 WSW 6.1 WSW 0.0 67.6
09:20 1.6 2.3 4.9 96.6 1000.5 0.8 E 6.1 ENE 0.0 81.8
09:25 1.7 2.5 4.9 96.4 1000.5 0.0 NNE 0.0 E 0.0 104.1
09:30 1.7 2.9 5.0 96.0 1000.5 1.1 ESE 6.1 ESE 0.0 121.0
09:35 1.7 3.0 5.1 95.6 1000.5 0.0 NNE 0.0 ESE 0.0 127.4
09:40 1.9 3.1 5.1 95.8 1000.5 0.0 NNE 0.0 ESE 0.0 128.1
09:45 2.0 3.3 5.2 95.2 1000.5 0.0 NNE 0.0 WSW 0.0 125.6
09:50 2.1 3.5 5.3 94.7 1000.5 1.5 NW 6.1 NNW 0.0 129.2
09:55 2.2 3.4 5.4 94.7 1000.6 1.4 WNW 6.1 WNW 0.0 121.7
10:00 2.3 3.4 5.5 94.0 1000.6 3.1 WNW 8.8 W 0.0 135.6
10:05 2.3 3.4 5.6 93.5 1000.6 4.5 NNW 8.8 NW 0.0 154.6
10:10 2.3 3.6 5.7 92.8 1000.5 2.3 NNE 8.8 NNE 0.0 194.8
10:15 2.5 3.8 5.8 92.4 1000.4 0.4 WSW 3.4 ESE 0.0 222.3
10:20 2.8 4.4 5.9 91.9 1000.4 0.0 NNE 0.0 WSW 0.0 263.4
10:25 3.3 5.7 6.2 90.9 1000.3 1.2 WNW 6.1 W 0.0 266.9
10:30 3.4 5.8 6.5 90.3 1000.2 2.6 NW 8.8 WNW 0.0 235.3
10:35 3.2 5.3 6.6 89.5 1000.2 5.3 W 8.8 WSW 0.0 215.0
10:40 3.2 5.7 6.7 90.9 1000.2 0.2 WNW 6.1 SSE 0.0 313.9
10:45 3.6 6.7 6.9 89.2 1000.1 2.1 SW 8.8 SSW 0.0 376.0
10:50 4.0 7.4 7.2 87.3 1000.0 1.3 SW 6.1 SW 0.0 387.7
10:55 4.4 8.8 7.5 86.1 1000.0 1.0 SSW 6.1 SSW 0.0 428.1
11:00 5.0 9.2 7.9 83.8 1000.0 1.3 SSW 6.1 S 0.0 441.2
11:05 5.4 10.2 8.3 81.8 999.9 0.2 SSE 6.1 SE 0.0 585.9
11:10 5.6 11.3 8.7 80.7 999.8 2.0 SSE 6.1 SE 0.0 508.1
11:15 5.9 11.5 9.1 81.4 999.7 1.4 S 6.1 SSW 0.0 478.3
11:20 6.1 12.0 9.4 79.8 999.7 2.2 SE 8.8 ESE 0.0 465.3
11:25 6.1 12.0 9.7 80.6 999.6 1.3 NE 6.1 NNE 0.0 425.5
11:30 5.9 12.2 10.0 80.7 999.6 2.2 NNE 6.1 ENE 0.0 372.6
11:35 5.5 11.1 10.2 83.0 999.6 2.9 NW 6.1 NNW 0.0 348.7
11:40 5.6 10.4 10.3 83.4 999.5 3.8 NW 6.1 WNW 0.0 321.3
11:45 5.3 10.0 10.4 84.6 999.4 2.9 N 6.1 NW 0.0 340.1
11:50 5.3 10.4 10.5 85.7 999.4 2.2 N 6.1 N 0.0 343.2
11:55 5.7 10.3 10.7 84.4 999.3 0.5 WNW 6.1 WNW 0.0 319.9
12:00 5.8 10.7 10.8 84.5 999.2 0.4 N 6.1 NNW 0.0 341.3
12:05 6.2 11.1 10.9 82.3 999.2 0.1 WNW 3.4 WNW 0.0 337.1
12:10 6.4 10.9 11.1 82.3 999.1 2.8 NW 6.1 WNW 0.0 353.0
12:15 6.4 11.1 11.2 82.3 999.1 0.3 NNW 3.4 NNW 0.0 358.0
12:20 6.8 11.6 11.3 81.1 999.0 0.1 W 3.4 W 0.0 356.9
12:25 7.3 11.9 11.5 79.5 999.0 3.2 WNW 6.1 WNW 0.0 465.5
12:30 8.0 12.8 11.8 77.4 999.0 1.3 WSW 6.1 WSW 0.0 487.2
12:35 8.3 13.5 12.1 73.0 998.9 2.1 S 6.1 W 0.0 480.2
12:40 8.0 14.2 12.3 74.2 998.8 1.6 SSE 6.1 ESE 0.0 406.8
12:45 8.2 13.8 12.4 73.9 998.7 2.3 WSW 8.8 SSW 0.0 426.7
12:50 8.5 13.1 12.5 71.1 998.7 6.8 WSW 11.5 W 0.0 356.2
12:55 8.4 12.5 12.5 69.4 998.7 7.3 WSW 11.5 WNW 0.0 332.1
13:00 8.4 12.4 12.5 70.6 998.6 6.0 SSW 11.5 W 0.0 317.4
13:05 8.3 11.9 12.5 71.5 998.6 5.1 SW 11.5 WSW 0.0 167.7
13:10 8.2 11.4 12.3 71.7 998.5 4.5 WSW 8.8 W 0.0 410.4
13:15 8.9 12.4 12.4 71.1 998.5 8.3 W 16.9 SSW 0.0 481.3
13:20 9.3 13.1 12.7 66.8 998.4 9.1 W 14.2 W 0.0 454.6
13:25 9.2 12.9 12.9 65.9 998.4 13.9 WSW 19.6 W 0.0 420.2
13:30 9.1 12.8 12.9 65.5 998.4 11.1 WSW 19.6 WSW 0.0 407.3
13:35 9.2 12.8 13.0 64.2 998.3 11.5 WSW 19.6 WSW 0.0 393.2
13:40 9.3 12.6 13.0 63.6 998.3 11.2 W 19.6 WSW 0.0 378.1
13:45 9.1 12.1 13.0 63.3 998.3 13.0 W 19.6 WSW 0.0 342.4
13:50 9.0 11.9 12.9 64.7 998.3 13.7 W 22.3 WSW 0.0 328.7
13:55 9.1 11.8 12.9 65.9 998.3 12.1 W 25.0 W 0.0 333.9
14:00 9.2 11.7 12.9 66.0 998.3 12.7 W 22.3 WNW 0.0 330.8
14:05 9.2 11.6 12.9 65.2 998.3 12.6 W 25.0 WNW 0.0 323.2
14:10 9.2 11.6 12.9 64.6 998.3 9.9 W 19.6 W 0.0 314.1
14:15 9.2 11.4 12.9 65.0 998.3 13.5 W 22.3 WNW 0.0 304.6
14:20 9.1 11.2 12.9 64.2 998.3 11.9 WSW 22.3 SSW 0.0 291.0
14:25 8.8 10.8 12.8 63.9 998.3 13.6 SW 25.0 SW 0.0 283.0
14:30 8.9 10.5 12.7 65.2 998.3 11.7 WSW 19.6 W 0.0 269.5
14:35 8.8 10.4 12.6 64.8 998.4 12.0 SW 22.3 SW 0.0 225.8
14:40 8.6 10.1 12.5 64.7 998.4 13.2 SW 22.3 SW 0.0 251.1
14:45 8.6 9.7 12.4 65.1 998.5 12.5 WSW 22.3 WSW 0.0 235.4
14:50 8.6 9.4 12.3 65.1 998.5 11.9 WSW 19.6 WSW 0.0 226.7
14:55 8.5 9.3 12.2 64.8 998.5 11.5 WSW 22.3 SW 0.0 209.6
15:00 8.5 9.2 12.1 65.7 998.6 10.7 WSW 22.3 W 0.0 196.6
15:05 8.5 9.0 12.0 66.6 998.6 11.6 WSW 22.3 W 0.0 188.3
15:10 8.4 8.8 11.9 65.6 998.7 12.6 WSW 19.6 SW 0.0 172.3
15:15 8.3 8.7 11.8 65.8 998.7 11.0 WSW 25.0 W 0.0 167.2
15:20 8.1 8.6 11.6 66.3 998.8 11.7 SW 22.3 SSW 0.0 148.7
15:25 7.9 8.1 11.3 66.8 998.8 11.0 WSW 19.6 WSW 0.0 141.3
15:30 8.0 7.7 11.0 67.1 998.8 8.6 WSW 14.2 WSW 0.0 142.7
15:35 8.0 7.5 10.9 67.4 998.8 10.0 SW 16.9 WSW 0.0 135.2
15:40 7.9 7.3 10.7 67.6 998.8 7.8 WSW 16.9 SW 0.0 123.1
15:45 8.0 7.1 10.5 67.8 998.9 8.3 WSW 14.2 SW 0.0 108.5
15:50 7.9 6.9 10.3 68.1 998.9 8.0 WSW 14.2 WSW 0.0 91.8
15:55 7.7 6.6 10.1 69.6 998.9 7.3 W 11.5 SSW 0.0 37.7
16:00 7.4 6.2 9.9 70.1 999.0 9.4 W 25.0 WNW 0.0 33.3
16:05 7.0 5.8 9.7 69.4 999.0 11.6 WNW 19.6 W 0.0 32.7
16:10 6.8 5.7 9.5 71.2 999.0 8.0 W 14.2 WNW 0.0 32.5
16:15 6.7 5.4 9.4 72.7 999.1 4.7 W 8.8 WNW 0.0 23.6
16:20 6.5 5.2 9.2 73.1 999.2 5.9 WSW 8.8 SW 0.0 14.1
16:25 6.4 4.8 9.1 74.0 999.2 6.5 WSW 11.5 W 0.0 8.5
16:30 6.2 4.6 8.9 75.0 999.2 9.1 W 16.9 WNW 0.0 5.4
16:35 6.1 4.5 8.7 75.4 999.2 8.7 W 19.6 W 0.0 3.1
16:40 6.0 4.3 8.5 75.9 999.3 6.8 WSW 16.9 WNW 0.0 1.6
16:45 5.9 4.1 8.4 76.1 999.4 7.5 W 14.2 WNW 0.0 0.7
16:50 5.8 3.9 8.2 77.0 999.4 8.7 W 14.2 W 0.0 0.3
16:55 5.6 3.7 8.1 78.1 999.4 8.0 W 19.6 WSW 0.0 0.2
17:00 5.6 3.6 7.9 78.1 999.6 8.3 W 16.9 WNW 0.0 0.1
17:05 5.5 3.4 7.8 79.3 999.8 4.3 NW 14.2 W 0.0 0.1
17:10 5.5 3.6 7.7 79.5 999.9 6.4 NW 14.2 WNW 0.0 0.1
17:15 5.5 3.8 7.7 79.6 1000.0 5.2 WNW 11.5 NW 0.0 0.1
17:20 5.5 3.9 7.6 80.2 1000.1 7.1 W 11.5 WNW 0.0 0.1
17:25 5.4 4.0 7.6 80.1 1000.2 8.0 W 14.2 WSW 0.0 0.1
17:30 5.5 4.1 7.5 80.0 1000.2 8.0 W 11.5 WSW 0.0 0.1
17:35 5.5 4.2 7.4 80.3 1000.3 7.4 W 11.5 W 0.0 0.1
17:40 5.5 4.2 7.4 80.5 1000.3 6.4 W 11.5 WNW 0.0 0.1
17:45 5.5 4.3 7.4 80.6 1000.4 4.1 W 11.5 WSW 0.0 0.1
17:50 5.5 4.2 7.3 80.7 1000.5 2.2 W 8.8 W 0.0 0.1
17:55 5.5 4.0 7.3 81.1 1000.5 1.1 WSW 6.1 W 0.0 0.1
18:00 5.4 3.8 7.3 82.0 1000.5 0.3 WSW 3.4 WSW 0.0 0.1
18:05 5.3 3.8 7.2 83.9 1000.6 0.8 WSW 3.4 WSW 0.0 0.1
18:10 5.2 3.9 7.2 84.1 1000.7 1.5 E 6.1 E 0.0 0.1
18:15 5.3 4.0 7.2 83.2 1000.7 3.0 ESE 6.1 ESE 0.0 0.1
18:20 5.4 3.9 7.1 82.8 1000.7 1.3 ESE 3.4 ESE 0.0 0.1
18:25 5.4 3.9 7.1 82.4 1000.8 0.0 NNE 0.0 ESE 0.0 0.1
18:30 5.5 3.9 7.1 80.9 1000.8 0.2 SE 3.4 SE 0.0 0.1
18:35 5.5 3.9 7.0 82.5 1000.9 1.4 SSW 3.4 SE 0.0 0.1
18:40 5.5 4.0 7.0 81.8 1001.0 1.1 SSW 6.1 SSW 0.0 0.1
18:45 5.5 4.1 7.0 82.0 1001.1 0.8 SW 6.1 SW 0.0 0.1
18:50 5.4 4.2 7.0 84.5 1001.2 1.5 WSW 6.1 SW 0.0 0.1
18:55 5.4 4.3 7.0 83.3 1001.2 4.0 SSW 6.1 SSW 0.0 0.1
19:00 5.5 4.5 7.0 83.2 1001.2 3.9 SSW 6.1 SSW 0.0 0.1
19:05 5.5 4.6 7.0 84.6 1001.3 1.6 W 6.1 WSW 0.0 0.1
19:10 5.4 4.6 7.0 85.3 1001.3 2.9 WNW 6.1 NW 0.0 0.1
19:15 5.4 4.6 7.0 85.0 1001.4 0.3 WNW 3.4 WNW 0.0 0.1
19:20 5.4 4.6 7.0 84.6 1001.4 0.0 NNE 0.0 WNW 0.0 0.1
19:25 5.4 4.7 7.0 83.7 1001.4 2.7 WNW 6.1 NE 0.0 0.1
19:30 5.4 4.7 7.0 83.2 1001.4 0.4 SW 3.4 WSW 0.0 0.1
19:35 5.5 4.7 7.0 82.8 1001.4 1.8 WNW 8.8 WNW 0.0 0.1
19:40 5.5 4.7 7.0 82.1 1001.5 0.6 WNW 6.1 WNW 0.0 0.1
19:45 5.5 4.8 7.0 83.1 1001.5 2.1 WNW 6.1 WNW 0.0 0.1
19:50 5.6 4.8 6.9 80.8 1001.5 5.6 N 11.5 NNW 0.0 0.1
19:55 5.7 4.8 6.9 79.3 1001.5 2.6 NNW 8.8 WNW 0.0 0.1
20:00 5.7 4.9 6.9 82.0 1001.6 4.2 WNW 6.1 WNW 0.0 0.1
20:05 5.6 4.9 6.9 83.3 1001.7 2.3 WSW 6.1 W 0.0 0.1
20:10 5.6 4.9 6.9 83.9 1001.8 1.0 W 3.4 WSW 0.0 0.1
20:15 5.5 4.9 6.9 84.7 1001.9 2.2 W 6.1 WNW 0.0 0.1
20:20 5.5 4.8 6.9 83.0 1001.9 0.0 NNE 0.0 W 0.0 0.1
20:25 5.5 4.8 6.9 81.7 1002.0 0.0 NNE 0.0 W 0.0 0.1
20:30 5.6 4.7 6.9 81.0 1002.0 0.0 NNE 0.0 W 0.0 0.1
20:35 5.6 4.6 6.9 81.5 1002.1 0.0 NNE 0.0 W 0.0 0.1
20:40 5.6 4.5 6.9 82.1 1002.2 0.0 NNE 0.0 W 0.0 0.1
20:45 5.5 4.4 6.8 84.6 1002.3 0.0 NNE 0.0 W 0.0 0.1
20:50 5.4 4.3 6.8 85.4 1002.3 0.0 NNE 0.0 W 0.0 0.1
20:55 5.4 4.1 6.8 85.1 1002.4 0.0 NNE 0.0 W 0.0 0.1
21:00 5.3 4.1 6.7 84.9 1002.5 0.0 NNE 0.0 W 0.0 0.1
21:05 5.3 4.1 6.7 86.6 1002.6 0.0 NNE 0.0 W 0.0 0.1
Màxima 9.4 14.2 13.0 99.3 1002.6 13.9 WSW 25.0 WNW 0.0 585.9
Mínima 0.3 -1.5 3.5 63.3 998.2
Total 0.0